createdAt,value
2023-03-31T00:01:56.353Z,1010.55
2023-03-31T00:06:55.489Z,1010.59
2023-03-31T00:11:56.627Z,1010.37
2023-03-31T00:16:57.848Z,1010.28
2023-03-31T00:21:59.019Z,1010.05
2023-03-31T00:27:00.144Z,1009.60
2023-03-31T00:32:01.196Z,1009.73
2023-03-31T00:37:02.332Z,1009.81
2023-03-31T00:42:04.468Z,1009.84
2023-03-31T00:47:03.614Z,1009.78
2023-03-31T00:52:05.698Z,1009.71
2023-03-31T00:57:04.918Z,1009.62
2023-03-31T01:02:06.032Z,1009.68
2023-03-31T01:07:08.105Z,1009.56
2023-03-31T01:12:07.295Z,1009.42
2023-03-31T01:17:08.483Z,1009.39
2023-03-31T01:22:13.507Z,1009.26
2023-03-31T01:27:10.668Z,1009.21
2023-03-31T01:32:11.733Z,1009.13
2023-03-31T01:37:12.885Z,1009.07
2023-03-31T01:42:14.086Z,1008.87
2023-03-31T01:47:15.264Z,1008.92
2023-03-31T01:52:17.511Z,1008.99
2023-03-31T01:57:16.774Z,1008.82
2023-03-31T02:02:18.081Z,1008.90
2023-03-31T02:07:19.248Z,1008.84
2023-03-31T02:12:21.298Z,1008.69
2023-03-31T02:17:20.443Z,1008.56
2023-03-31T02:22:21.546Z,1008.44
2023-03-31T02:27:23.650Z,1008.41
2023-03-31T02:32:22.798Z,1008.34
2023-03-31T02:37:24.843Z,1008.38
2023-03-31T02:42:23.920Z,1008.47
2023-03-31T02:47:25.153Z,1008.48
2023-03-31T02:52:26.258Z,1008.43
2023-03-31T02:57:27.369Z,1008.21
2023-03-31T03:02:29.475Z,1008.12
2023-03-31T03:07:28.503Z,1008.02
2023-03-31T03:12:29.660Z,1007.91
2023-03-31T03:17:30.815Z,1007.84
2023-03-31T03:22:32.888Z,1007.75
2023-03-31T03:27:31.944Z,1007.80
2023-03-31T03:32:34.118Z,1007.52
2023-03-31T03:37:33.225Z,1007.37
2023-03-31T03:42:35.298Z,1007.03
2023-03-31T03:47:34.480Z,1007.03
2023-03-31T03:52:35.588Z,1006.88
2023-03-31T03:57:38.653Z,1006.99
2023-03-31T04:02:38.862Z,1006.79
2023-03-31T04:07:37.975Z,1006.51
2023-03-31T04:12:40.025Z,1006.37
2023-03-31T04:17:39.104Z,1006.49
2023-03-31T04:22:41.397Z,1006.25
2023-03-31T04:27:40.531Z,1005.79
2023-03-31T04:32:41.596Z,1005.78
2023-03-31T04:37:41.681Z,1005.38
2023-03-31T04:42:52.756Z,1005.46
2023-03-31T04:47:43.892Z,1005.34
2023-03-31T04:52:45.020Z,1004.98
2023-03-31T04:57:47.096Z,1004.93
2023-03-31T05:02:47.317Z,1004.65
2023-03-31T05:07:46.480Z,1004.45
2023-03-31T05:12:47.519Z,1004.48
2023-03-31T05:17:49.625Z,1004.25
2023-03-31T05:22:48.659Z,1004.24
2023-03-31T05:27:49.875Z,1004.21
2023-03-31T05:32:52.988Z,1004.13
2023-03-31T05:37:53.049Z,1003.99
2023-03-31T05:42:53.136Z,1003.89
2023-03-31T05:47:52.394Z,1003.63
2023-03-31T05:52:53.530Z,1003.72
2023-03-31T05:57:54.584Z,1003.37
2023-03-31T06:02:55.877Z,1003.44
2023-03-31T06:07:57.962Z,1003.38
2023-03-31T06:12:57.050Z,1003.09
2023-03-31T06:17:58.394Z,1002.90
2023-03-31T06:23:00.478Z,1002.81
2023-03-31T06:28:00.536Z,1002.80
2023-03-31T06:32:59.635Z,1002.70
2023-03-31T06:38:00.671Z,1003.11
2023-03-31T06:43:01.875Z,1002.90
2023-03-31T06:48:03.047Z,1003.09
2023-03-31T06:53:04.083Z,1003.25
2023-03-31T06:58:06.176Z,1003.30
2023-03-31T07:03:07.353Z,1003.48
2023-03-31T07:08:06.434Z,1003.41
2023-03-31T07:13:08.562Z,1003.62
2023-03-31T07:18:08.683Z,1003.17
2023-03-31T07:23:08.738Z,1003.37
2023-03-31T07:28:07.936Z,1003.27
2023-03-31T07:33:09.104Z,1003.16
2023-03-31T07:38:10.336Z,1003.31
2023-03-31T07:43:11.378Z,1003.46
2023-03-31T07:48:12.642Z,1003.86
2023-03-31T07:53:13.725Z,1004.59
2023-03-31T07:58:14.811Z,1005.24
2023-03-31T08:03:16.019Z,1005.07
2023-03-31T08:08:18.324Z,1005.00
2023-03-31T08:13:17.490Z,1004.94
2023-03-31T08:18:18.710Z,1004.92
2023-03-31T08:23:19.860Z,1004.72
2023-03-31T08:28:21.921Z,1004.53
2023-03-31T08:33:21.116Z,1004.60
2023-03-31T08:38:23.409Z,1004.20
2023-03-31T08:43:23.475Z,1004.24
2023-03-31T08:48:22.621Z,1004.56
2023-03-31T08:53:23.759Z,1004.48
2023-03-31T08:58:24.838Z,1004.34
2023-03-31T09:03:26.997Z,1004.16
2023-03-31T09:08:26.136Z,1004.56
2023-03-31T09:13:27.220Z,1004.11
2023-03-31T09:18:28.320Z,1003.91
2023-03-31T09:23:29.364Z,1004.05
2023-03-31T09:28:30.452Z,1004.04
2023-03-31T09:33:31.690Z,1003.76
2023-03-31T09:38:32.760Z,1003.67
2023-03-31T09:43:33.893Z,1004.03
2023-03-31T09:48:35.023Z,1003.71
2023-03-31T09:53:36.120Z,1003.85
2023-03-31T09:58:37.575Z,1004.04
2023-03-31T10:03:39.729Z,1004.10
2023-03-31T10:08:38.766Z,1004.12
2023-03-31T10:13:39.957Z,1004.44
2023-03-31T10:18:41.120Z,1004.23
2023-03-31T10:23:42.171Z,1004.06
2023-03-31T10:28:43.619Z,1004.34
2023-03-31T10:33:43.818Z,1004.30
2023-03-31T10:38:44.922Z,1003.99
2023-03-31T10:43:46.111Z,1003.61
2023-03-31T10:48:48.203Z,1003.35
2023-03-31T10:53:47.313Z,1003.29
2023-03-31T10:59:02.070Z,1003.51
2023-03-31T11:03:48.407Z,1003.10
2023-03-31T11:08:49.593Z,1002.67
2023-03-31T11:13:50.679Z,1002.39
2023-03-31T11:18:52.807Z,1002.21
2023-03-31T11:23:50.884Z,1002.19
2023-03-31T11:28:52.039Z,1002.45
2023-03-31T11:33:53.109Z,1002.40
2023-03-31T11:38:55.362Z,1002.32
2023-03-31T11:43:54.529Z,1002.65
2023-03-31T11:48:56.590Z,1002.43
2023-03-31T11:53:55.756Z,1002.45
2023-03-31T11:58:56.899Z,1002.08
2023-03-31T12:03:58.016Z,1001.95
2023-03-31T12:08:59.110Z,1001.75
2023-03-31T12:14:00.205Z,1001.74
2023-03-31T12:19:01.377Z,1001.98
2023-03-31T12:24:02.424Z,1001.84
2023-03-31T12:29:03.565Z,1001.87
2023-03-31T12:34:04.628Z,1001.72
2023-03-31T12:39:07.716Z,1001.70
2023-03-31T12:44:06.873Z,1001.36
2023-03-31T12:49:07.998Z,1001.63
2023-03-31T12:54:11.128Z,1001.69
2023-03-31T12:59:10.235Z,1001.57
2023-03-31T13:04:10.302Z,1001.61
2023-03-31T13:09:11.431Z,1001.66
2023-03-31T13:14:12.875Z,1002.08
2023-03-31T13:19:15.008Z,1002.71
2023-03-31T13:24:14.174Z,1002.96
2023-03-31T13:29:15.280Z,1003.27
2023-03-31T13:34:16.736Z,1002.47
2023-03-31T13:39:15.822Z,1002.57
2023-03-31T13:44:18.018Z,1002.59
2023-03-31T13:49:36.060Z,1002.17
2023-03-31T13:54:18.207Z,1002.06
2023-03-31T13:59:17.257Z,1001.87
2023-03-31T14:04:18.358Z,1001.72
2023-03-31T14:09:19.471Z,1002.30
2023-03-31T14:14:20.564Z,1002.09
2023-03-31T14:24:22.699Z,1003.78
2023-03-31T14:29:24.787Z,1004.34
2023-03-31T14:34:23.874Z,1003.00
2023-03-31T14:39:25.041Z,1002.17
2023-03-31T14:44:26.105Z,1002.36
2023-03-31T14:49:27.407Z,1002.10
2023-03-31T14:54:29.457Z,1002.44
2023-03-31T14:59:28.664Z,1002.30
2023-03-31T15:04:39.603Z,1001.95
2023-03-31T15:09:29.751Z,1002.11
2023-03-31T15:14:31.159Z,1002.26
2023-03-31T15:19:32.259Z,1002.02
2023-03-31T15:24:33.332Z,1001.98
2023-03-31T15:29:35.390Z,1001.89
2023-03-31T15:34:34.481Z,1001.83
2023-03-31T15:39:35.597Z,1001.76
2023-03-31T15:44:36.710Z,1001.62
2023-03-31T15:49:37.928Z,1001.89
2023-03-31T15:54:39.146Z,1001.99
2023-03-31T15:59:54.190Z,1002.11
2023-03-31T16:04:40.166Z,1002.01
2023-03-31T16:09:41.367Z,1002.11
2023-03-31T16:14:42.416Z,1002.36
2023-03-31T16:19:43.536Z,1002.37
2023-03-31T16:24:44.960Z,1002.39
2023-03-31T16:29:46.111Z,1002.46
2023-03-31T16:34:47.234Z,1003.48
2023-03-31T16:39:49.438Z,1003.28
2023-03-31T16:45:00.007Z,1003.76
2023-03-31T16:49:49.683Z,1003.91
2023-03-31T16:54:51.003Z,1003.64
2023-03-31T16:59:52.167Z,1003.68
2023-03-31T17:04:56.553Z,1003.27
2023-03-31T17:09:53.718Z,1003.57
2023-03-31T17:14:52.817Z,1003.28
2023-03-31T17:19:55.174Z,1003.24
2023-03-31T17:24:54.263Z,1003.15
2023-03-31T17:29:56.555Z,1003.23
2023-03-31T17:34:56.732Z,1003.16
2023-03-31T17:39:57.907Z,1003.35
2023-03-31T17:44:57.284Z,1003.18
2023-03-31T17:49:58.505Z,1002.83
2023-03-31T17:55:01.488Z,1003.07
2023-03-31T18:00:00.917Z,1002.99
2023-03-31T18:05:02.967Z,1003.22
2023-03-31T18:10:02.473Z,1003.36
2023-03-31T18:15:05.747Z,1003.38
2023-03-31T18:20:05.843Z,1003.42
2023-03-31T18:25:06.303Z,1003.20
2023-03-31T18:30:06.400Z,1003.33
2023-03-31T18:35:06.820Z,1003.20
2023-03-31T18:40:07.661Z,1003.16
2023-03-31T18:45:07.107Z,1003.26
2023-03-31T18:50:09.473Z,1003.06
2023-03-31T18:55:09.534Z,1003.13
2023-03-31T19:00:09.381Z,1002.99
2023-03-31T19:05:08.790Z,1002.91
2023-03-31T19:10:10.249Z,1002.95
2023-03-31T19:15:09.905Z,1003.18
2023-03-31T19:20:13.109Z,1003.34
2023-03-31T19:25:10.427Z,1003.30
2023-03-31T19:30:11.917Z,1003.90
2023-03-31T19:35:12.275Z,1004.26
2023-03-31T19:40:12.393Z,1004.49
2023-03-31T19:45:11.742Z,1004.99
2023-03-31T19:50:13.139Z,1005.04
2023-03-31T19:55:15.288Z,1005.16
2023-03-31T20:00:15.020Z,1004.89
2023-03-31T20:05:14.457Z,1004.82
2023-03-31T20:10:12.933Z,1004.49
2023-03-31T20:15:14.347Z,1004.54
2023-03-31T20:20:15.065Z,1004.41
2023-03-31T20:25:14.485Z,1004.56
2023-03-31T20:30:13.868Z,1004.63
2023-03-31T20:35:15.231Z,1004.75
2023-03-31T20:40:16.434Z,1004.75
2023-03-31T20:45:17.573Z,1004.80
2023-03-31T20:50:19.800Z,1004.59
2023-03-31T20:55:19.057Z,1004.69
2023-03-31T21:00:20.221Z,1004.50
2023-03-31T21:05:21.310Z,1004.39
2023-03-31T21:10:22.434Z,1004.57
2023-03-31T21:15:24.503Z,1004.51
2023-03-31T21:20:23.654Z,1004.44
2023-03-31T21:25:25.795Z,1004.31
2023-03-31T21:30:24.882Z,1004.44
2023-03-31T21:35:26.026Z,1004.67
2023-03-31T21:40:28.137Z,1004.76
2023-03-31T21:45:27.254Z,1004.57
2023-03-31T21:50:28.345Z,1004.72
2023-03-31T21:55:29.704Z,1004.63
2023-03-31T22:00:29.888Z,1004.65
2023-03-31T22:05:28.004Z,1004.49
2023-03-31T22:10:29.095Z,1004.44
2023-03-31T22:15:30.375Z,1004.36
2023-03-31T22:20:31.574Z,1004.48
2023-03-31T22:25:32.825Z,1004.50
2023-03-31T22:30:35.087Z,1004.40
2023-03-31T22:35:34.536Z,1004.34
2023-03-31T22:40:34.883Z,1004.27
2023-03-31T22:45:34.155Z,1004.22
2023-03-31T22:50:36.431Z,1004.15
2023-03-31T22:55:36.496Z,1004.13
2023-03-31T23:00:35.703Z,1004.24
2023-03-31T23:05:36.741Z,1004.15
2023-03-31T23:10:36.904Z,1004.25
2023-03-31T23:15:38.020Z,1004.22
2023-03-31T23:20:40.129Z,1004.35
2023-03-31T23:25:39.197Z,1004.44
2023-03-31T23:30:40.355Z,1004.33
2023-03-31T23:35:41.398Z,1004.46
2023-03-31T23:40:42.475Z,1004.67
2023-03-31T23:45:45.570Z,1004.36
2023-03-31T23:50:44.679Z,1004.53
2023-03-31T23:55:45.758Z,1004.25
